sensor_id;sensor_type;location;lat;lon;timestamp;P1;durP1;ratioP1;P2;durP2;ratioP2
60917;SDS011;46792;38.854;-9.384;2022-12-07T00:01:34;55.38;;;8.77;;
60917;SDS011;46792;38.854;-9.384;2022-12-07T00:03:36;65.40;;;9.23;;
60917;SDS011;46792;38.854;-9.384;2022-12-07T00:05:37;99.45;;;9.57;;
60917;SDS011;46792;38.854;-9.384;2022-12-07T00:07:56;61.33;;;10.30;;
60917;SDS011;46792;38.854;-9.384;2022-12-07T00:10:15;56.63;;;11.80;;
60917;SDS011;46792;38.854;-9.384;2022-12-07T00:12:16;52.05;;;11.48;;
60917;SDS011;46792;38.854;-9.384;2022-12-07T00:14:17;43.70;;;10.00;;
60917;SDS011;46792;38.854;-9.384;2022-12-07T00:16:18;21.83;;;9.77;;
60917;SDS011;46792;38.854;-9.384;2022-12-07T00:18:20;41.38;;;10.30;;
60917;SDS011;46792;38.854;-9.384;2022-12-07T00:20:21;30.60;;;11.38;;
60917;SDS011;46792;38.854;-9.384;2022-12-07T00:22:25;34.58;;;11.52;;
60917;SDS011;46792;38.854;-9.384;2022-12-07T00:24:28;26.52;;;10.82;;
60917;SDS011;46792;38.854;-9.384;2022-12-07T00:26:32;82.25;;;11.65;;
60917;SDS011;46792;38.854;-9.384;2022-12-07T00:28:35;98.15;;;12.75;;
60917;SDS011;46792;38.854;-9.384;2022-12-07T00:30:36;82.55;;;11.52;;
60917;SDS011;46792;38.854;-9.384;2022-12-07T00:32:37;114.80;;;12.18;;
60917;SDS011;46792;38.854;-9.384;2022-12-07T00:34:37;84.75;;;12.63;;
60917;SDS011;46792;38.854;-9.384;2022-12-07T00:36:53;87.28;;;12.10;;
60917;SDS011;46792;38.854;-9.384;2022-12-07T00:38:54;96.85;;;13.20;;
60917;SDS011;46792;38.854;-9.384;2022-12-07T00:41:05;96.90;;;14.07;;
60917;SDS011;46792;38.854;-9.384;2022-12-07T00:43:25;74.43;;;12.02;;
60917;SDS011;46792;38.854;-9.384;2022-12-07T00:45:26;88.22;;;13.52;;
60917;SDS011;46792;38.854;-9.384;2022-12-07T00:47:27;78.72;;;12.60;;
60917;SDS011;46792;38.854;-9.384;2022-12-07T00:49:27;165.13;;;13.07;;
60917;SDS011;46792;38.854;-9.384;2022-12-07T00:51:28;237.07;;;16.42;;
60917;SDS011;46792;38.854;-9.384;2022-12-07T00:53:29;81.70;;;12.70;;
60917;SDS011;46792;38.854;-9.384;2022-12-07T00:55:33;157.43;;;15.23;;
60917;SDS011;46792;38.854;-9.384;2022-12-07T00:57:34;52.58;;;15.10;;
60917;SDS011;46792;38.854;-9.384;2022-12-07T00:59:35;86.35;;;13.45;;
60917;SDS011;46792;38.854;-9.384;2022-12-07T01:01:36;117.88;;;14.25;;
60917;SDS011;46792;38.854;-9.384;2022-12-07T01:03:37;61.03;;;15.23;;
60917;SDS011;46792;38.854;-9.384;2022-12-07T01:05:39;53.63;;;15.88;;
60917;SDS011;46792;38.854;-9.384;2022-12-07T01:07:40;66.85;;;13.70;;
60917;SDS011;46792;38.854;-9.384;2022-12-07T01:09:40;70.07;;;13.05;;
60917;SDS011;46792;38.854;-9.384;2022-12-07T01:11:41;124.35;;;12.40;;
60917;SDS011;46792;38.854;-9.384;2022-12-07T01:13:42;111.57;;;13.23;;
60917;SDS011;46792;38.854;-9.384;2022-12-07T01:15:44;69.18;;;12.98;;
60917;SDS011;46792;38.854;-9.384;2022-12-07T01:17:45;177.20;;;15.30;;
60917;SDS011;46792;38.854;-9.384;2022-12-07T01:19:45;213.30;;;17.67;;
60917;SDS011;46792;38.854;-9.384;2022-12-07T01:21:46;137.35;;;12.93;;
60917;SDS011;46792;38.854;-9.384;2022-12-07T01:23:47;210.57;;;16.27;;
60917;SDS011;46792;38.854;-9.384;2022-12-07T01:26:09;86.47;;;12.75;;
60917;SDS011;46792;38.854;-9.384;2022-12-07T01:28:12;165.50;;;15.82;;
60917;SDS011;46792;38.854;-9.384;2022-12-07T01:30:12;134.50;;;12.35;;
60917;SDS011;46792;38.854;-9.384;2022-12-07T01:32:13;147.52;;;14.73;;
60917;SDS011;46792;38.854;-9.384;2022-12-07T01:34:14;89.18;;;10.43;;
60917;SDS011;46792;38.854;-9.384;2022-12-07T01:36:22;138.85;;;13.00;;
60917;SDS011;46792;38.854;-9.384;2022-12-07T01:38:24;83.05;;;12.35;;
60917;SDS011;46792;38.854;-9.384;2022-12-07T01:40:25;194.05;;;14.50;;
60917;SDS011;46792;38.854;-9.384;2022-12-07T01:42:25;53.22;;;10.32;;
60917;SDS011;46792;38.854;-9.384;2022-12-07T01:44:27;138.93;;;12.18;;
60917;SDS011;46792;38.854;-9.384;2022-12-07T01:46:32;250.52;;;17.77;;
60917;SDS011;46792;38.854;-9.384;2022-12-07T01:48:37;317.98;;;17.25;;
60917;SDS011;46792;38.854;-9.384;2022-12-07T01:50:42;320.15;;;16.60;;
60917;SDS011;46792;38.854;-9.384;2022-12-07T01:52:45;336.73;;;18.80;;
60917;SDS011;46792;38.854;-9.384;2022-12-07T01:54:51;201.18;;;12.88;;
60917;SDS011;46792;38.854;-9.384;2022-12-07T01:57:16;140.02;;;13.38;;
60917;SDS011;46792;38.854;-9.384;2022-12-07T01:59:17;151.10;;;13.85;;
60917;SDS011;46792;38.854;-9.384;2022-12-07T02:01:21;145.20;;;14.25;;
60917;SDS011;46792;38.854;-9.384;2022-12-07T02:03:42;132.20;;;13.13;;
60917;SDS011;46792;38.854;-9.384;2022-12-07T02:06:03;198.15;;;15.52;;
60917;SDS011;46792;38.854;-9.384;2022-12-07T02:08:05;286.30;;;14.88;;
60917;SDS011;46792;38.854;-9.384;2022-12-07T02:10:17;175.20;;;14.57;;
60917;SDS011;46792;38.854;-9.384;2022-12-07T02:12:21;298.23;;;20.13;;
60917;SDS011;46792;38.854;-9.384;2022-12-07T02:14:24;181.13;;;18.25;;
60917;SDS011;46792;38.854;-9.384;2022-12-07T02:18:48;239.95;;;15.20;;
60917;SDS011;46792;38.854;-9.384;2022-12-07T02:30:57;332.50;;;18.73;;
60917;SDS011;46792;38.854;-9.384;2022-12-07T02:35:48;274.52;;;17.63;;
60917;SDS011;46792;38.854;-9.384;2022-12-07T02:37:50;147.13;;;16.63;;
60917;SDS011;46792;38.854;-9.384;2022-12-07T02:43:38;294.63;;;19.13;;
60917;SDS011;46792;38.854;-9.384;2022-12-07T02:45:22;235.32;;;16.10;;
60917;SDS011;46792;38.854;-9.384;2022-12-07T02:47:26;133.35;;;14.15;;
60917;SDS011;46792;38.854;-9.384;2022-12-07T02:49:29;158.53;;;13.67;;
60917;SDS011;46792;38.854;-9.384;2022-12-07T02:51:49;279.70;;;15.82;;
60917;SDS011;46792;38.854;-9.384;2022-12-07T02:54:15;160.80;;;13.27;;
60917;SDS011;46792;38.854;-9.384;2022-12-07T02:59:00;197.98;;;13.88;;
60917;SDS011;46792;38.854;-9.384;2022-12-07T03:03:58;115.60;;;12.77;;
60917;SDS011;46792;38.854;-9.384;2022-12-07T03:06:42;179.52;;;12.65;;
60917;SDS011;46792;38.854;-9.384;2022-12-07T03:08:54;130.07;;;12.77;;
60917;SDS011;46792;38.854;-9.384;2022-12-07T03:11:09;170.50;;;13.88;;
60917;SDS011;46792;38.854;-9.384;2022-12-07T03:13:38;71.93;;;11.93;;
60917;SDS011;46792;38.854;-9.384;2022-12-07T03:17:56;175.60;;;13.05;;
60917;SDS011;46792;38.854;-9.384;2022-12-07T03:20:00;157.95;;;12.02;;
60917;SDS011;46792;38.854;-9.384;2022-12-07T03:22:05;294.38;;;15.98;;
60917;SDS011;46792;38.854;-9.384;2022-12-07T03:24:15;334.95;;;15.60;;
60917;SDS011;46792;38.854;-9.384;2022-12-07T03:26:24;269.13;;;18.88;;
60917;SDS011;46792;38.854;-9.384;2022-12-07T03:28:33;73.45;;;14.02;;
60917;SDS011;46792;38.854;-9.384;2022-12-07T03:30:46;131.07;;;15.57;;
60917;SDS011;46792;38.854;-9.384;2022-12-07T03:33:05;160.45;;;15.15;;
60917;SDS011;46792;38.854;-9.384;2022-12-07T03:35:19;87.22;;;13.35;;
60917;SDS011;46792;38.854;-9.384;2022-12-07T03:37:57;183.52;;;15.90;;
60917;SDS011;46792;38.854;-9.384;2022-12-07T03:40:37;82.07;;;13.80;;
60917;SDS011;46792;38.854;-9.384;2022-12-07T03:43:03;191.40;;;13.45;;
60917;SDS011;46792;38.854;-9.384;2022-12-07T03:45:05;330.67;;;16.75;;
60917;SDS011;46792;38.854;-9.384;2022-12-07T03:49:51;79.75;;;10.63;;
60917;SDS011;46792;38.854;-9.384;2022-12-07T03:56:58;284.55;;;14.38;;
60917;SDS011;46792;38.854;-9.384;2022-12-07T03:59:02;231.85;;;13.27;;
60917;SDS011;46792;38.854;-9.384;2022-12-07T04:01:03;311.90;;;15.35;;
60917;SDS011;46792;38.854;-9.384;2022-12-07T04:03:03;215.75;;;12.90;;
60917;SDS011;46792;38.854;-9.384;2022-12-07T04:05:04;114.38;;;12.70;;
60917;SDS011;46792;38.854;-9.384;2022-12-07T04:07:05;124.18;;;11.10;;
60917;SDS011;46792;38.854;-9.384;2022-12-07T04:09:06;290.10;;;15.93;;
60917;SDS011;46792;38.854;-9.384;2022-12-07T04:11:25;156.18;;;14.48;;
60917;SDS011;46792;38.854;-9.384;2022-12-07T04:13:26;278.05;;;15.13;;
60917;SDS011;46792;38.854;-9.384;2022-12-07T04:15:26;200.82;;;12.18;;
60917;SDS011;46792;38.854;-9.384;2022-12-07T04:17:27;339.08;;;14.77;;
60917;SDS011;46792;38.854;-9.384;2022-12-07T04:19:28;260.35;;;14.38;;
60917;SDS011;46792;38.854;-9.384;2022-12-07T04:21:30;232.32;;;14.85;;
60917;SDS011;46792;38.854;-9.384;2022-12-07T04:23:31;315.42;;;15.70;;
60917;SDS011;46792;38.854;-9.384;2022-12-07T04:25:50;184.20;;;14.05;;
60917;SDS011;46792;38.854;-9.384;2022-12-07T04:27:51;279.52;;;17.23;;
60917;SDS011;46792;38.854;-9.384;2022-12-07T04:29:51;176.88;;;14.23;;
60917;SDS011;46792;38.854;-9.384;2022-12-07T04:31:52;188.45;;;14.85;;
60917;SDS011;46792;38.854;-9.384;2022-12-07T04:33:53;247.55;;;15.95;;
60917;SDS011;46792;38.854;-9.384;2022-12-07T04:36:12;376.83;;;19.52;;
60917;SDS011;46792;38.854;-9.384;2022-12-07T04:38:13;227.10;;;15.60;;
60917;SDS011;46792;38.854;-9.384;2022-12-07T04:40:14;249.93;;;15.07;;
60917;SDS011;46792;38.854;-9.384;2022-12-07T04:42:14;225.07;;;14.23;;
60917;SDS011;46792;38.854;-9.384;2022-12-07T04:44:15;296.38;;;16.70;;
60917;SDS011;46792;38.854;-9.384;2022-12-07T04:46:35;238.93;;;16.35;;
60917;SDS011;46792;38.854;-9.384;2022-12-07T04:48:36;191.32;;;13.93;;
60917;SDS011;46792;38.854;-9.384;2022-12-07T04:50:39;248.27;;;16.92;;
60917;SDS011;46792;38.854;-9.384;2022-12-07T04:52:40;193.43;;;15.87;;
60917;SDS011;46792;38.854;-9.384;2022-12-07T04:54:41;140.35;;;14.35;;
60917;SDS011;46792;38.854;-9.384;2022-12-07T04:56:59;280.25;;;17.38;;
60917;SDS011;46792;38.854;-9.384;2022-12-07T04:59:00;220.82;;;16.65;;
60917;SDS011;46792;38.854;-9.384;2022-12-07T05:01:01;214.70;;;17.15;;
60917;SDS011;46792;38.854;-9.384;2022-12-07T05:03:02;274.23;;;16.00;;
60917;SDS011;46792;38.854;-9.384;2022-12-07T05:05:03;356.33;;;19.13;;
60917;SDS011;46792;38.854;-9.384;2022-12-07T05:07:04;224.95;;;16.65;;
60917;SDS011;46792;38.854;-9.384;2022-12-07T05:09:04;300.02;;;15.55;;
60917;SDS011;46792;38.854;-9.384;2022-12-07T05:11:05;258.23;;;17.20;;
60917;SDS011;46792;38.854;-9.384;2022-12-07T05:13:07;219.55;;;15.05;;
60917;SDS011;46792;38.854;-9.384;2022-12-07T05:15:26;351.83;;;18.27;;
60917;SDS011;46792;38.854;-9.384;2022-12-07T05:17:26;370.55;;;17.75;;
60917;SDS011;46792;38.854;-9.384;2022-12-07T05:19:27;206.82;;;16.67;;
60917;SDS011;46792;38.854;-9.384;2022-12-07T05:21:28;59.22;;;12.30;;
60917;SDS011;46792;38.854;-9.384;2022-12-07T05:23:28;59.67;;;13.57;;
60917;SDS011;46792;38.854;-9.384;2022-12-07T05:25:29;75.40;;;12.65;;
60917;SDS011;46792;38.854;-9.384;2022-12-07T05:27:29;63.38;;;11.88;;
60917;SDS011;46792;38.854;-9.384;2022-12-07T05:29:30;45.65;;;11.23;;
60917;SDS011;46792;38.854;-9.384;2022-12-07T05:31:31;77.22;;;12.73;;
60917;SDS011;46792;38.854;-9.384;2022-12-07T05:33:32;101.78;;;13.77;;
60917;SDS011;46792;38.854;-9.384;2022-12-07T05:35:32;63.20;;;11.85;;
60917;SDS011;46792;38.854;-9.384;2022-12-07T05:37:33;57.00;;;13.20;;
60917;SDS011;46792;38.854;-9.384;2022-12-07T05:39:34;183.98;;;14.32;;
60917;SDS011;46792;38.854;-9.384;2022-12-07T05:41:34;179.65;;;14.88;;
60917;SDS011;46792;38.854;-9.384;2022-12-07T05:43:53;154.50;;;13.95;;
60917;SDS011;46792;38.854;-9.384;2022-12-07T05:45:54;357.15;;;19.05;;
60917;SDS011;46792;38.854;-9.384;2022-12-07T05:47:55;236.05;;;15.85;;
60917;SDS011;46792;38.854;-9.384;2022-12-07T05:49:55;209.93;;;14.23;;
60917;SDS011;46792;38.854;-9.384;2022-12-07T05:51:56;99.18;;;14.65;;
60917;SDS011;46792;38.854;-9.384;2022-12-07T05:53:57;129.48;;;14.45;;
60917;SDS011;46792;38.854;-9.384;2022-12-07T05:58:54;108.00;;;13.98;;
60917;SDS011;46792;38.854;-9.384;2022-12-07T06:01:35;169.02;;;14.32;;
60917;SDS011;46792;38.854;-9.384;2022-12-07T06:03:40;127.13;;;14.83;;
60917;SDS011;46792;38.854;-9.384;2022-12-07T06:05:41;84.68;;;14.30;;
60917;SDS011;46792;38.854;-9.384;2022-12-07T06:07:42;73.57;;;13.70;;
60917;SDS011;46792;38.854;-9.384;2022-12-07T06:09:42;58.47;;;13.43;;
60917;SDS011;46792;38.854;-9.384;2022-12-07T06:11:43;72.15;;;12.57;;
60917;SDS011;46792;38.854;-9.384;2022-12-07T06:14:03;140.27;;;14.00;;
60917;SDS011;46792;38.854;-9.384;2022-12-07T06:16:04;87.40;;;13.20;;
60917;SDS011;46792;38.854;-9.384;2022-12-07T06:18:05;66.15;;;12.82;;
60917;SDS011;46792;38.854;-9.384;2022-12-07T06:20:06;67.13;;;11.80;;
60917;SDS011;46792;38.854;-9.384;2022-12-07T06:22:07;79.30;;;12.10;;
60917;SDS011;46792;38.854;-9.384;2022-12-07T06:24:12;71.25;;;12.32;;
60917;SDS011;46792;38.854;-9.384;2022-12-07T06:26:14;80.07;;;13.88;;
60917;SDS011;46792;38.854;-9.384;2022-12-07T06:28:33;109.60;;;13.23;;
60917;SDS011;46792;38.854;-9.384;2022-12-07T06:30:34;35.40;;;12.23;;
60917;SDS011;46792;38.854;-9.384;2022-12-07T06:32:35;51.38;;;12.40;;
60917;SDS011;46792;38.854;-9.384;2022-12-07T06:34:37;26.75;;;11.88;;
60917;SDS011;46792;38.854;-9.384;2022-12-07T06:36:57;34.03;;;14.10;;
60917;SDS011;46792;38.854;-9.384;2022-12-07T06:39:16;27.55;;;11.55;;
60917;SDS011;46792;38.854;-9.384;2022-12-07T06:41:18;24.70;;;12.30;;
60917;SDS011;46792;38.854;-9.384;2022-12-07T06:43:19;19.42;;;10.73;;
60917;SDS011;46792;38.854;-9.384;2022-12-07T06:45:19;16.48;;;10.73;;
60917;SDS011;46792;38.854;-9.384;2022-12-07T06:47:20;21.77;;;10.20;;
60917;SDS011;46792;38.854;-9.384;2022-12-07T06:51:31;15.77;;;11.02;;
60917;SDS011;46792;38.854;-9.384;2022-12-07T06:53:51;18.27;;;10.75;;
60917;SDS011;46792;38.854;-9.384;2022-12-07T06:55:52;16.77;;;10.43;;
60917;SDS011;46792;38.854;-9.384;2022-12-07T06:57:52;20.15;;;10.48;;
60917;SDS011;46792;38.854;-9.384;2022-12-07T06:59:53;13.95;;;9.45;;
60917;SDS011;46792;38.854;-9.384;2022-12-07T07:02:12;15.88;;;9.43;;
60917;SDS011;46792;38.854;-9.384;2022-12-07T07:04:13;15.32;;;9.27;;
60917;SDS011;46792;38.854;-9.384;2022-12-07T07:06:31;15.85;;;10.43;;
60917;SDS011;46792;38.854;-9.384;2022-12-07T07:08:33;28.73;;;10.20;;
60917;SDS011;46792;38.854;-9.384;2022-12-07T07:10:34;26.38;;;10.38;;
60917;SDS011;46792;38.854;-9.384;2022-12-07T07:12:54;17.48;;;9.55;;
60917;SDS011;46792;38.854;-9.384;2022-12-07T07:14:55;20.75;;;9.35;;
60917;SDS011;46792;38.854;-9.384;2022-12-07T07:16:56;18.38;;;7.97;;
60917;SDS011;46792;38.854;-9.384;2022-12-07T07:18:57;27.45;;;8.95;;
60917;SDS011;46792;38.854;-9.384;2022-12-07T07:21:16;23.88;;;9.30;;
60917;SDS011;46792;38.854;-9.384;2022-12-07T07:23:17;23.30;;;8.52;;
60917;SDS011;46792;38.854;-9.384;2022-12-07T07:25:18;18.10;;;8.68;;
60917;SDS011;46792;38.854;-9.384;2022-12-07T07:27:19;27.60;;;8.38;;
60917;SDS011;46792;38.854;-9.384;2022-12-07T07:29:40;11.27;;;7.80;;
60917;SDS011;46792;38.854;-9.384;2022-12-07T07:31:41;12.77;;;8.23;;
60917;SDS011;46792;38.854;-9.384;2022-12-07T07:33:42;11.30;;;7.82;;
60917;SDS011;46792;38.854;-9.384;2022-12-07T07:35:42;11.43;;;7.45;;
60917;SDS011;46792;38.854;-9.384;2022-12-07T07:37:43;12.98;;;7.03;;
60917;SDS011;46792;38.854;-9.384;2022-12-07T07:39:44;9.85;;;6.45;;
60917;SDS011;46792;38.854;-9.384;2022-12-07T07:41:44;10.63;;;7.32;;
60917;SDS011;46792;38.854;-9.384;2022-12-07T07:43:48;13.35;;;7.13;;
60917;SDS011;46792;38.854;-9.384;2022-12-07T07:45:48;13.15;;;7.18;;
60917;SDS011;46792;38.854;-9.384;2022-12-07T07:47:49;9.15;;;6.80;;
60917;SDS011;46792;38.854;-9.384;2022-12-07T07:49:50;8.75;;;6.47;;
60917;SDS011;46792;38.854;-9.384;2022-12-07T07:51:51;11.63;;;6.93;;
60917;SDS011;46792;38.854;-9.384;2022-12-07T07:53:52;10.52;;;7.00;;
60917;SDS011;46792;38.854;-9.384;2022-12-07T07:55:53;12.60;;;6.85;;
60917;SDS011;46792;38.854;-9.384;2022-12-07T07:57:54;14.93;;;7.35;;
60917;SDS011;46792;38.854;-9.384;2022-12-07T07:59:55;11.65;;;7.35;;
60917;SDS011;46792;38.854;-9.384;2022-12-07T08:01:55;15.77;;;7.95;;
60917;SDS011;46792;38.854;-9.384;2022-12-07T08:03:56;12.25;;;7.60;;
60917;SDS011;46792;38.854;-9.384;2022-12-07T08:05:56;12.63;;;7.95;;
60917;SDS011;46792;38.854;-9.384;2022-12-07T08:07:57;17.58;;;7.95;;
60917;SDS011;46792;38.854;-9.384;2022-12-07T08:09:58;17.25;;;8.57;;
60917;SDS011;46792;38.854;-9.384;2022-12-07T08:11:59;12.40;;;7.50;;
60917;SDS011;46792;38.854;-9.384;2022-12-07T08:13:59;13.65;;;8.10;;
60917;SDS011;46792;38.854;-9.384;2022-12-07T08:16:07;13.85;;;7.43;;
60917;SDS011;46792;38.854;-9.384;2022-12-07T08:18:09;14.55;;;7.60;;
60917;SDS011;46792;38.854;-9.384;2022-12-07T08:20:11;16.73;;;8.48;;
60917;SDS011;46792;38.854;-9.384;2022-12-07T08:22:11;13.27;;;7.90;;
60917;SDS011;46792;38.854;-9.384;2022-12-07T08:24:33;12.43;;;7.97;;
60917;SDS011;46792;38.854;-9.384;2022-12-07T08:26:34;13.57;;;7.95;;
60917;SDS011;46792;38.854;-9.384;2022-12-07T08:28:35;11.13;;;7.68;;
60917;SDS011;46792;38.854;-9.384;2022-12-07T08:30:36;13.20;;;7.57;;
60917;SDS011;46792;38.854;-9.384;2022-12-07T08:32:37;22.02;;;8.68;;
60917;SDS011;46792;38.854;-9.384;2022-12-07T08:34:37;14.40;;;8.73;;
60917;SDS011;46792;38.854;-9.384;2022-12-07T08:36:38;12.65;;;7.20;;
60917;SDS011;46792;38.854;-9.384;2022-12-07T08:38:51;15.45;;;7.50;;
60917;SDS011;46792;38.854;-9.384;2022-12-07T08:40:58;14.35;;;8.20;;
60917;SDS011;46792;38.854;-9.384;2022-12-07T08:42:59;20.23;;;7.97;;
60917;SDS011;46792;38.854;-9.384;2022-12-07T08:45:00;19.98;;;8.27;;
60917;SDS011;46792;38.854;-9.384;2022-12-07T08:47:01;13.68;;;8.27;;
60917;SDS011;46792;38.854;-9.384;2022-12-07T08:49:09;15.45;;;7.72;;
60917;SDS011;46792;38.854;-9.384;2022-12-07T08:51:16;17.63;;;8.90;;
60917;SDS011;46792;38.854;-9.384;2022-12-07T08:53:17;39.92;;;10.05;;
60917;SDS011;46792;38.854;-9.384;2022-12-07T08:55:18;21.98;;;10.00;;
60917;SDS011;46792;38.854;-9.384;2022-12-07T08:57:19;20.80;;;9.90;;
60917;SDS011;46792;38.854;-9.384;2022-12-07T08:59:20;22.80;;;9.50;;
60917;SDS011;46792;38.854;-9.384;2022-12-07T09:01:21;36.88;;;9.27;;
60917;SDS011;46792;38.854;-9.384;2022-12-07T09:03:22;14.13;;;8.10;;
60917;SDS011;46792;38.854;-9.384;2022-12-07T09:05:22;18.98;;;8.40;;
60917;SDS011;46792;38.854;-9.384;2022-12-07T09:07:23;14.20;;;8.43;;
60917;SDS011;46792;38.854;-9.384;2022-12-07T09:09:25;13.93;;;8.85;;
60917;SDS011;46792;38.854;-9.384;2022-12-07T09:11:25;21.42;;;8.98;;
60917;SDS011;46792;38.854;-9.384;2022-12-07T09:13:45;16.20;;;8.57;;
60917;SDS011;46792;38.854;-9.384;2022-12-07T09:16:04;15.90;;;9.30;;
60917;SDS011;46792;38.854;-9.384;2022-12-07T09:18:05;18.33;;;9.85;;
60917;SDS011;46792;38.854;-9.384;2022-12-07T09:20:06;13.55;;;8.13;;
60917;SDS011;46792;38.854;-9.384;2022-12-07T09:22:07;16.52;;;9.32;;
60917;SDS011;46792;38.854;-9.384;2022-12-07T09:24:07;32.40;;;9.73;;
60917;SDS011;46792;38.854;-9.384;2022-12-07T09:26:09;18.92;;;8.68;;
60917;SDS011;46792;38.854;-9.384;2022-12-07T09:28:11;22.73;;;9.35;;
60917;SDS011;46792;38.854;-9.384;2022-12-07T09:30:12;13.30;;;8.70;;
60917;SDS011;46792;38.854;-9.384;2022-12-07T09:32:13;24.17;;;9.02;;
60917;SDS011;46792;38.854;-9.384;2022-12-07T09:34:14;13.38;;;8.90;;
60917;SDS011;46792;38.854;-9.384;2022-12-07T09:36:14;19.75;;;9.13;;
60917;SDS011;46792;38.854;-9.384;2022-12-07T09:38:15;13.35;;;9.88;;
60917;SDS011;46792;38.854;-9.384;2022-12-07T09:40:16;14.40;;;9.00;;
60917;SDS011;46792;38.854;-9.384;2022-12-07T09:44:34;18.38;;;10.77;;
60917;SDS011;46792;38.854;-9.384;2022-12-07T09:46:36;18.33;;;10.45;;
60917;SDS011;46792;38.854;-9.384;2022-12-07T09:48:40;16.30;;;10.77;;
60917;SDS011;46792;38.854;-9.384;2022-12-07T09:50:46;18.20;;;10.23;;
60917;SDS011;46792;38.854;-9.384;2022-12-07T09:52:48;21.63;;;11.70;;
60917;SDS011;46792;38.854;-9.384;2022-12-07T09:54:50;21.05;;;10.77;;
60917;SDS011;46792;38.854;-9.384;2022-12-07T09:56:51;22.88;;;11.80;;
60917;SDS011;46792;38.854;-9.384;2022-12-07T09:58:54;20.63;;;11.73;;
60917;SDS011;46792;38.854;-9.384;2022-12-07T10:03:12;31.90;;;14.07;;
60917;SDS011;46792;38.854;-9.384;2022-12-07T10:05:14;29.20;;;14.02;;
60917;SDS011;46792;38.854;-9.384;2022-12-07T10:07:18;24.10;;;13.13;;
60917;SDS011;46792;38.854;-9.384;2022-12-07T10:09:20;25.67;;;15.27;;
60917;SDS011;46792;38.854;-9.384;2022-12-07T10:11:22;30.98;;;15.68;;
60917;SDS011;46792;38.854;-9.384;2022-12-07T10:13:34;26.67;;;15.63;;
60917;SDS011;46792;38.854;-9.384;2022-12-07T10:15:59;31.67;;;16.75;;
60917;SDS011;46792;38.854;-9.384;2022-12-07T10:17:59;34.30;;;18.17;;
60917;SDS011;46792;38.854;-9.384;2022-12-07T10:22:26;42.72;;;19.00;;
60917;SDS011;46792;38.854;-9.384;2022-12-07T10:24:27;40.83;;;19.60;;
60917;SDS011;46792;38.854;-9.384;2022-12-07T10:31:30;39.03;;;22.08;;
60917;SDS011;46792;38.854;-9.384;2022-12-07T10:33:32;46.03;;;23.80;;
60917;SDS011;46792;38.854;-9.384;2022-12-07T10:35:50;47.10;;;23.50;;
60917;SDS011;46792;38.854;-9.384;2022-12-07T10:37:51;36.60;;;21.65;;
60917;SDS011;46792;38.854;-9.384;2022-12-07T10:39:54;50.22;;;24.88;;
60917;SDS011;46792;38.854;-9.384;2022-12-07T10:41:57;45.05;;;22.13;;
60917;SDS011;46792;38.854;-9.384;2022-12-07T10:43:59;41.55;;;23.08;;
60917;SDS011;46792;38.854;-9.384;2022-12-07T10:48:17;40.92;;;20.83;;
60917;SDS011;46792;38.854;-9.384;2022-12-07T10:50:32;38.63;;;21.45;;
60917;SDS011;46792;38.854;-9.384;2022-12-07T10:52:45;46.28;;;22.73;;
60917;SDS011;46792;38.854;-9.384;2022-12-07T10:57:27;37.42;;;21.25;;
60917;SDS011;46792;38.854;-9.384;2022-12-07T11:00:01;38.03;;;20.85;;
60917;SDS011;46792;38.854;-9.384;2022-12-07T11:02:14;34.78;;;21.48;;
60917;SDS011;46792;38.854;-9.384;2022-12-07T11:21:41;34.35;;;21.05;;
60917;SDS011;46792;38.854;-9.384;2022-12-07T11:24:15;35.70;;;21.13;;
60917;SDS011;46792;38.854;-9.384;2022-12-07T11:26:29;33.67;;;20.10;;
60917;SDS011;46792;38.854;-9.384;2022-12-07T11:35:21;31.98;;;19.83;;
60917;SDS011;46792;38.854;-9.384;2022-12-07T11:37:43;36.70;;;19.73;;
60917;SDS011;46792;38.854;-9.384;2022-12-07T11:42:16;31.75;;;17.60;;
60917;SDS011;46792;38.854;-9.384;2022-12-07T11:44:33;35.35;;;18.08;;
60917;SDS011;46792;38.854;-9.384;2022-12-07T11:46:49;35.28;;;19.60;;
60917;SDS011;46792;38.854;-9.384;2022-12-07T11:49:02;28.98;;;19.05;;
60917;SDS011;46792;38.854;-9.384;2022-12-07T11:51:12;35.88;;;18.73;;
60917;SDS011;46792;38.854;-9.384;2022-12-07T11:53:17;32.92;;;18.08;;
60917;SDS011;46792;38.854;-9.384;2022-12-07T11:55:26;33.45;;;18.77;;
60917;SDS011;46792;38.854;-9.384;2022-12-07T11:57:42;28.83;;;16.98;;
60917;SDS011;46792;38.854;-9.384;2022-12-07T12:06:09;25.58;;;15.50;;
60917;SDS011;46792;38.854;-9.384;2022-12-07T12:10:18;26.67;;;15.80;;
60917;SDS011;46792;38.854;-9.384;2022-12-07T12:12:50;26.80;;;14.68;;
60917;SDS011;46792;38.854;-9.384;2022-12-07T12:20:14;15.10;;;11.07;;
60917;SDS011;46792;38.854;-9.384;2022-12-07T12:22:42;19.17;;;11.75;;
60917;SDS011;46792;38.854;-9.384;2022-12-07T12:24:48;18.52;;;11.48;;
60917;SDS011;46792;38.854;-9.384;2022-12-07T12:26:58;19.08;;;11.45;;
60917;SDS011;46792;38.854;-9.384;2022-12-07T12:29:22;15.75;;;10.65;;
60917;SDS011;46792;38.854;-9.384;2022-12-07T12:31:38;19.45;;;10.85;;
60917;SDS011;46792;38.854;-9.384;2022-12-07T12:33:44;19.27;;;12.43;;
60917;SDS011;46792;38.854;-9.384;2022-12-07T12:38:31;24.35;;;11.68;;
60917;SDS011;46792;38.854;-9.384;2022-12-07T12:40:49;25.83;;;13.32;;
60917;SDS011;46792;38.854;-9.384;2022-12-07T12:45:04;27.35;;;14.45;;
60917;SDS011;46792;38.854;-9.384;2022-12-07T12:50:15;24.75;;;15.23;;
60917;SDS011;46792;38.854;-9.384;2022-12-07T12:59:30;17.77;;;11.27;;
60917;SDS011;46792;38.854;-9.384;2022-12-07T13:01:37;18.65;;;10.93;;
60917;SDS011;46792;38.854;-9.384;2022-12-07T13:03:41;19.63;;;10.27;;
60917;SDS011;46792;38.854;-9.384;2022-12-07T13:08:23;16.77;;;9.30;;
60917;SDS011;46792;38.854;-9.384;2022-12-07T13:12:28;11.68;;;8.85;;
60917;SDS011;46792;38.854;-9.384;2022-12-07T13:16:52;8.57;;;6.50;;
60917;SDS011;46792;38.854;-9.384;2022-12-07T13:18:53;5.85;;;4.55;;
60917;SDS011;46792;38.854;-9.384;2022-12-07T13:23:03;7.40;;;3.88;;
60917;SDS011;46792;38.854;-9.384;2022-12-07T13:27:10;12.07;;;4.03;;
60917;SDS011;46792;38.854;-9.384;2022-12-07T13:29:13;10.27;;;4.85;;
60917;SDS011;46792;38.854;-9.384;2022-12-07T13:31:20;6.78;;;4.80;;
60917;SDS011;46792;38.854;-9.384;2022-12-07T13:33:30;6.88;;;5.40;;
60917;SDS011;46792;38.854;-9.384;2022-12-07T13:35:35;14.40;;;5.93;;
60917;SDS011;46792;38.854;-9.384;2022-12-07T13:37:39;17.33;;;7.50;;
60917;SDS011;46792;38.854;-9.384;2022-12-07T13:39:47;15.38;;;6.85;;
60917;SDS011;46792;38.854;-9.384;2022-12-07T13:42:13;10.57;;;6.72;;
60917;SDS011;46792;38.854;-9.384;2022-12-07T13:44:40;9.80;;;6.97;;
60917;SDS011;46792;38.854;-9.384;2022-12-07T13:49:21;13.68;;;8.45;;
60917;SDS011;46792;38.854;-9.384;2022-12-07T13:51:34;21.65;;;8.75;;
60917;SDS011;46792;38.854;-9.384;2022-12-07T13:53:45;13.98;;;8.75;;
60917;SDS011;46792;38.854;-9.384;2022-12-07T13:55:47;15.13;;;9.52;;
60917;SDS011;46792;38.854;-9.384;2022-12-07T13:57:49;14.38;;;9.52;;
60917;SDS011;46792;38.854;-9.384;2022-12-07T13:59:51;21.80;;;10.20;;
60917;SDS011;46792;38.854;-9.384;2022-12-07T14:01:53;19.48;;;10.52;;
60917;SDS011;46792;38.854;-9.384;2022-12-07T14:03:54;22.08;;;10.35;;
60917;SDS011;46792;38.854;-9.384;2022-12-07T14:06:05;18.92;;;10.90;;
60917;SDS011;46792;38.854;-9.384;2022-12-07T14:08:32;18.80;;;9.80;;
60917;SDS011;46792;38.854;-9.384;2022-12-07T14:10:33;21.90;;;11.48;;